createdAt,value
2023-05-06T00:01:30.108Z,12.30
2023-05-06T00:03:58.265Z,12.30
2023-05-06T00:06:27.450Z,12.20
2023-05-06T00:08:58.676Z,12.20
2023-05-06T00:11:27.256Z,12.20
2023-05-06T00:13:55.537Z,12.10
2023-05-06T00:16:24.915Z,12.10
2023-05-06T00:18:52.915Z,12.10
2023-05-06T00:21:20.880Z,12.10
2023-05-06T00:23:48.917Z,12.10
2023-05-06T00:26:19.610Z,12.00
2023-05-06T00:28:47.606Z,12.00
2023-05-06T00:31:15.619Z,12.00
2023-05-06T00:33:45.225Z,11.80
2023-05-06T00:36:13.272Z,11.80
2023-05-06T00:38:41.330Z,11.70
2023-05-06T00:41:10.053Z,11.70
2023-05-06T00:43:38.028Z,11.70
2023-05-06T00:46:06.893Z,11.80
2023-05-06T00:48:34.924Z,11.70
2023-05-06T00:51:04.368Z,11.70
2023-05-06T00:53:32.933Z,11.70
2023-05-06T00:56:01.334Z,11.70
2023-05-06T00:58:29.332Z,11.70
2023-05-06T01:00:57.731Z,11.70
2023-05-06T01:03:26.195Z,11.70
2023-05-06T01:06:01.383Z,11.60
2023-05-06T01:08:33.600Z,11.60
2023-05-06T01:11:06.461Z,11.60
2023-05-06T01:13:36.644Z,11.60
2023-05-06T01:16:08.353Z,11.50
2023-05-06T01:18:37.114Z,11.40
2023-05-06T01:21:06.252Z,11.40
2023-05-06T01:23:49.161Z,11.40
2023-05-06T01:26:18.631Z,11.30
2023-05-06T01:28:46.712Z,11.40
2023-05-06T01:31:16.434Z,11.40
2023-05-06T01:33:47.493Z,11.40
2023-05-06T01:36:22.684Z,11.40
2023-05-06T01:38:53.855Z,11.40
2023-05-06T01:41:24.002Z,11.40
2023-05-06T01:43:52.875Z,11.30
2023-05-06T01:46:21.713Z,11.30
2023-05-06T01:48:50.972Z,11.30
2023-05-06T01:51:19.016Z,11.30
2023-05-06T01:53:49.558Z,11.20
2023-05-06T01:56:20.310Z,11.20
2023-05-06T01:58:49.637Z,10.00
2023-05-06T02:01:17.750Z,11.20
2023-05-06T02:03:45.830Z,11.10
2023-05-06T02:06:15.190Z,11.20
2023-05-06T02:08:43.162Z,11.10
2023-05-06T02:11:11.172Z,11.10
2023-05-06T02:13:39.116Z,11.10
2023-05-06T02:16:09.166Z,11.10
2023-05-06T02:18:37.337Z,11.10
2023-05-06T02:21:05.307Z,11.10
2023-05-06T02:23:35.148Z,11.10
2023-05-06T02:26:03.660Z,11.20
2023-05-06T02:28:31.654Z,11.20
2023-05-06T02:30:59.885Z,11.20
2023-05-06T02:33:29.254Z,11.20
2023-05-06T02:35:57.226Z,11.10
2023-05-06T02:38:25.725Z,11.10
2023-05-06T02:40:53.679Z,11.10
2023-05-06T02:43:23.080Z,11.10
2023-05-06T02:45:51.126Z,11.10
2023-05-06T02:48:19.172Z,11.00
2023-05-06T02:50:48.471Z,11.00
2023-05-06T02:53:16.527Z,11.00
2023-05-06T02:55:44.469Z,11.00
2023-05-06T02:58:12.456Z,11.00
2023-05-06T03:00:40.442Z,11.00
2023-05-06T03:03:08.554Z,11.00
2023-05-06T03:05:36.639Z,11.00
2023-05-06T03:08:06.508Z,11.00
2023-05-06T03:10:34.468Z,11.00
2023-05-06T03:13:02.582Z,11.10
2023-05-06T03:15:32.036Z,11.00
2023-05-06T03:18:00.200Z,11.00
2023-05-06T03:20:28.884Z,11.00
2023-05-06T03:22:56.924Z,11.00
2023-05-06T03:25:26.288Z,11.00
2023-05-06T03:27:54.280Z,11.10
2023-05-06T03:30:22.333Z,11.10
2023-05-06T03:32:50.412Z,11.10
2023-05-06T03:35:18.760Z,11.00
2023-05-06T03:37:46.828Z,10.90
2023-05-06T03:40:14.981Z,10.80
2023-05-06T03:42:53.010Z,10.90
2023-05-06T03:45:21.094Z,10.90
2023-05-06T03:47:49.173Z,10.90
2023-05-06T03:50:17.259Z,10.90
2023-05-06T03:52:45.224Z,10.90
2023-05-06T03:55:22.078Z,10.90
2023-05-06T03:57:50.057Z,10.90
2023-05-06T04:00:19.596Z,10.90
2023-05-06T04:02:47.670Z,10.90
2023-05-06T04:05:16.187Z,10.90
2023-05-06T04:08:02.063Z,10.90
2023-05-06T04:10:30.043Z,10.90
2023-05-06T04:12:58.065Z,10.90
2023-05-06T04:15:29.150Z,10.90
2023-05-06T04:17:57.332Z,10.90
2023-05-06T04:20:25.317Z,10.80
2023-05-06T04:22:53.272Z,10.90
2023-05-06T04:25:21.313Z,10.80
2023-05-06T04:27:49.494Z,10.90
2023-05-06T04:30:20.942Z,10.90
2023-05-06T04:32:50.367Z,10.90
2023-05-06T04:35:18.474Z,10.90
2023-05-06T04:37:46.450Z,10.90
2023-05-06T04:40:14.811Z,10.90
2023-05-06T04:42:43.114Z,10.90
2023-05-06T04:45:11.779Z,10.90
2023-05-06T04:47:39.912Z,10.90
2023-05-06T04:50:10.102Z,10.90
2023-05-06T04:52:38.327Z,10.90
2023-05-06T04:55:06.738Z,10.90
2023-05-06T04:57:34.804Z,10.90
2023-05-06T05:00:02.956Z,10.80
2023-05-06T05:02:34.297Z,10.80
2023-05-06T05:05:02.364Z,10.80
2023-05-06T05:07:31.748Z,10.80
2023-05-06T05:09:59.941Z,10.60
2023-05-06T05:12:27.944Z,10.70
2023-05-06T05:14:55.916Z,10.70
2023-05-06T05:17:23.872Z,10.80
2023-05-06T05:19:53.864Z,10.80
2023-05-06T05:22:21.843Z,10.80
2023-05-06T05:24:51.489Z,10.90
2023-05-06T05:27:19.520Z,10.90
2023-05-06T05:29:47.523Z,10.90
2023-05-06T05:32:16.133Z,10.90
2023-05-06T05:34:44.811Z,10.90
2023-05-06T05:37:12.825Z,10.90
2023-05-06T05:39:40.839Z,10.90
2023-05-06T05:42:10.358Z,10.90
2023-05-06T05:44:38.478Z,10.90
2023-05-06T05:47:08.289Z,11.00
2023-05-06T05:49:36.258Z,11.00
2023-05-06T05:52:04.395Z,11.00
2023-05-06T05:54:34.474Z,11.10
2023-05-06T05:57:02.511Z,11.10
2023-05-06T05:59:32.957Z,11.10
2023-05-06T06:02:01.004Z,11.00
2023-05-06T06:04:29.111Z,11.10
2023-05-06T06:06:58.030Z,11.10
2023-05-06T06:09:26.554Z,11.20
2023-05-06T06:11:56.240Z,11.20
2023-05-06T06:14:24.256Z,11.20
2023-05-06T06:16:53.657Z,11.30
2023-05-06T06:19:26.339Z,11.30
2023-05-06T06:21:54.688Z,11.40
2023-05-06T06:24:22.661Z,11.40
2023-05-06T06:26:50.767Z,11.40
2023-05-06T06:29:18.873Z,11.40
2023-05-06T06:31:46.933Z,11.50
2023-05-06T06:34:16.279Z,11.60
2023-05-06T06:36:45.249Z,11.60
2023-05-06T06:39:13.360Z,11.70
2023-05-06T06:41:41.762Z,11.80
2023-05-06T06:44:09.785Z,11.80
2023-05-06T06:46:39.732Z,11.80
2023-05-06T06:49:10.600Z,11.70
2023-05-06T06:51:41.760Z,11.50
2023-05-06T06:54:09.717Z,11.40
2023-05-06T06:56:37.689Z,11.50
2023-05-06T06:59:05.796Z,11.60
2023-05-06T07:01:33.838Z,11.60
2023-05-06T07:04:07.015Z,11.60
2023-05-06T07:06:35.201Z,11.60
2023-05-06T07:09:04.588Z,11.60
2023-05-06T07:11:32.550Z,11.70
2023-05-06T07:14:00.516Z,11.80
2023-05-06T07:16:28.527Z,11.80
2023-05-06T07:18:56.522Z,11.70
2023-05-06T07:21:24.584Z,11.90
2023-05-06T07:23:52.542Z,12.00
2023-05-06T07:26:25.149Z,12.10
2023-05-06T07:28:53.175Z,12.20
2023-05-06T07:31:21.474Z,12.40
2023-05-06T07:33:49.482Z,12.50
2023-05-06T07:36:17.854Z,12.60
2023-05-06T07:38:45.947Z,12.60
2023-05-06T07:41:16.625Z,12.70
2023-05-06T07:43:47.260Z,12.80
2023-05-06T07:46:15.721Z,12.80
2023-05-06T07:48:46.509Z,12.90
2023-05-06T07:51:17.729Z,13.00
2023-05-06T07:53:45.740Z,13.10
2023-05-06T07:56:14.078Z,13.10
2023-05-06T07:58:42.108Z,13.10
2023-05-06T08:01:11.439Z,13.10
2023-05-06T08:03:39.554Z,13.20
2023-05-06T08:06:08.430Z,13.30
2023-05-06T08:08:36.379Z,13.30
2023-05-06T08:11:04.401Z,13.40
2023-05-06T08:13:33.516Z,13.40
2023-05-06T08:16:03.525Z,13.40
2023-05-06T08:18:32.881Z,13.50
2023-05-06T08:21:00.908Z,13.60
2023-05-06T08:23:28.867Z,13.50
2023-05-06T08:25:56.826Z,13.40
2023-05-06T08:28:25.379Z,13.50
2023-05-06T08:30:53.437Z,13.60
2023-05-06T08:33:22.861Z,13.60
2023-05-06T08:35:52.230Z,13.60
2023-05-06T08:38:20.209Z,13.80
2023-05-06T08:40:49.604Z,13.80
2023-05-06T08:43:21.022Z,13.80
2023-05-06T08:45:50.388Z,13.80
2023-05-06T08:48:20.008Z,13.90
2023-05-06T08:50:49.467Z,14.00
2023-05-06T08:53:18.979Z,14.00
2023-05-06T08:55:49.367Z,14.10
2023-05-06T08:58:17.796Z,14.20
2023-05-06T09:00:48.896Z,14.20
2023-05-06T09:03:17.001Z,14.20
2023-05-06T09:05:45.088Z,14.20
2023-05-06T09:08:14.536Z,14.20
2023-05-06T09:10:46.158Z,14.20
2023-05-06T09:13:14.946Z,14.20
2023-05-06T09:15:47.267Z,14.30
2023-05-06T09:18:15.422Z,14.40
2023-05-06T09:20:44.020Z,14.40
2023-05-06T09:23:13.347Z,14.50
2023-05-06T09:25:42.141Z,14.60
2023-05-06T09:28:12.318Z,14.70
2023-05-06T09:30:41.749Z,14.90
2023-05-06T09:35:39.039Z,15.00
2023-05-06T09:38:07.526Z,15.00
2023-05-06T09:40:37.133Z,14.90
2023-05-06T09:43:05.777Z,14.90
2023-05-06T09:45:35.240Z,14.90
2023-05-06T09:48:04.539Z,15.00
2023-05-06T09:50:35.376Z,15.00
2023-05-06T09:53:05.642Z,15.10
2023-05-06T09:55:34.354Z,15.20
2023-05-06T09:58:04.750Z,15.30
2023-05-06T10:00:33.052Z,15.30
2023-05-06T10:03:07.039Z,15.40
2023-05-06T10:05:36.404Z,15.30
2023-05-06T10:08:04.860Z,15.40
2023-05-06T10:10:33.490Z,15.50
2023-05-06T10:13:03.240Z,15.50
2023-05-06T10:15:31.419Z,15.60
2023-05-06T10:18:01.263Z,15.70
2023-05-06T10:20:31.408Z,15.80
2023-05-06T10:23:04.463Z,16.10
2023-05-06T10:25:36.375Z,16.10
2023-05-06T10:28:07.086Z,16.30
2023-05-06T10:30:41.375Z,16.50
2023-05-06T10:33:10.695Z,16.50
2023-05-06T10:35:45.549Z,16.40
2023-05-06T10:38:16.194Z,16.50
2023-05-06T10:40:44.759Z,16.60
2023-05-06T10:43:23.970Z,16.60
2023-05-06T10:46:02.280Z,17.40
2023-05-06T10:48:30.947Z,16.90
2023-05-06T10:51:28.838Z,17.00
2023-05-06T10:54:03.718Z,17.00
2023-05-06T10:56:32.544Z,17.00
2023-05-06T10:59:04.083Z,17.00
2023-05-06T11:01:32.282Z,17.10
2023-05-06T11:04:03.291Z,17.20
2023-05-06T11:06:37.906Z,17.30
2023-05-06T11:09:07.352Z,17.40
2023-05-06T11:11:48.326Z,17.50
2023-05-06T11:14:16.912Z,17.60
2023-05-06T11:16:48.062Z,17.60
2023-05-06T11:19:20.935Z,17.70
2023-05-06T11:21:50.765Z,17.80
2023-05-06T11:24:27.917Z,17.80
2023-05-06T11:26:56.313Z,17.90
2023-05-06T11:29:25.048Z,17.90
2023-05-06T11:31:54.073Z,17.80
2023-05-06T11:34:23.843Z,17.80
2023-05-06T11:36:58.542Z,17.70
2023-05-06T11:39:30.632Z,17.80
2023-05-06T11:41:59.652Z,17.80
2023-05-06T11:44:28.674Z,17.90
2023-05-06T11:47:00.342Z,17.90
2023-05-06T11:49:28.503Z,18.10
2023-05-06T11:51:57.691Z,18.20
2023-05-06T11:54:27.118Z,18.30
2023-05-06T11:56:57.313Z,18.40
2023-05-06T11:59:29.644Z,18.50
2023-05-06T12:01:58.059Z,18.60
2023-05-06T12:04:26.305Z,18.90
2023-05-06T12:06:57.528Z,19.00
2023-05-06T12:09:28.185Z,19.20
2023-05-06T12:11:59.876Z,19.20
2023-05-06T12:14:28.073Z,19.40
2023-05-06T12:16:56.459Z,19.50
2023-05-06T12:19:25.019Z,19.60
2023-05-06T12:21:54.275Z,19.70
2023-05-06T12:24:28.908Z,19.60
2023-05-06T12:26:58.314Z,19.60
2023-05-06T12:29:26.322Z,19.60
2023-05-06T12:32:08.218Z,19.80
2023-05-06T12:34:39.837Z,19.90
2023-05-06T12:37:08.569Z,20.20
2023-05-06T12:39:37.140Z,20.30
2023-05-06T12:42:06.896Z,20.40
2023-05-06T12:44:36.241Z,20.50
2023-05-06T12:47:07.391Z,20.60
2023-05-06T12:49:45.536Z,20.80
2023-05-06T12:52:13.747Z,21.20
2023-05-06T12:54:41.765Z,20.90
2023-05-06T12:57:11.228Z,20.90
2023-05-06T12:59:41.420Z,21.00
2023-05-06T13:02:09.414Z,21.10
2023-05-06T13:04:37.437Z,21.30
2023-05-06T13:07:05.456Z,21.50
2023-05-06T13:09:33.425Z,21.50
2023-05-06T13:12:02.549Z,21.70
2023-05-06T13:14:31.913Z,21.90
2023-05-06T13:17:04.595Z,22.00
2023-05-06T13:19:33.430Z,22.30
2023-05-06T13:22:02.073Z,22.30
2023-05-06T13:24:30.819Z,22.60
2023-05-06T13:27:00.762Z,22.50
2023-05-06T13:29:30.852Z,22.40
2023-05-06T13:32:00.755Z,22.40
2023-05-06T13:34:31.526Z,22.60
2023-05-06T13:36:59.810Z,22.70
2023-05-06T13:39:27.756Z,22.80
2023-05-06T13:41:56.938Z,22.90
2023-05-06T13:44:25.533Z,22.80
2023-05-06T13:46:53.550Z,22.70
2023-05-06T13:49:22.889Z,22.50
2023-05-06T13:51:51.004Z,22.30
2023-05-06T13:54:19.247Z,22.40
2023-05-06T13:56:47.263Z,22.40
2023-05-06T13:59:15.586Z,22.50
2023-05-06T14:01:43.876Z,22.70
2023-05-06T14:04:14.618Z,22.90
2023-05-06T14:06:43.973Z,22.80
2023-05-06T14:09:12.156Z,23.10
2023-05-06T14:11:42.757Z,23.10
2023-05-06T14:14:10.825Z,24.30
2023-05-06T14:16:38.929Z,24.40
2023-05-06T14:19:15.655Z,23.90
2023-05-06T14:21:55.746Z,23.40
2023-05-06T14:24:23.829Z,22.80
2023-05-06T14:26:52.214Z,22.40
2023-05-06T14:29:20.333Z,22.10
2023-05-06T14:31:48.398Z,21.80
2023-05-06T14:34:16.383Z,21.60
2023-05-06T14:36:44.385Z,21.60
2023-05-06T14:39:14.098Z,22.00
2023-05-06T14:41:42.274Z,23.10
2023-05-06T14:44:10.370Z,23.10
2023-05-06T14:46:38.302Z,22.70
2023-05-06T14:49:06.271Z,22.90
2023-05-06T14:51:34.402Z,23.50
2023-05-06T14:54:02.784Z,24.40
2023-05-06T14:56:32.157Z,25.50
2023-05-06T14:59:01.906Z,26.20
2023-05-06T15:01:33.457Z,27.20
2023-05-06T15:04:04.027Z,26.30
2023-05-06T15:06:32.069Z,25.20
2023-05-06T15:09:00.127Z,24.50
2023-05-06T15:11:28.109Z,23.90
2023-05-06T15:13:57.520Z,23.40
2023-05-06T15:16:25.623Z,23.20
2023-05-06T15:18:53.638Z,23.00
2023-05-06T15:21:21.667Z,23.10
2023-05-06T15:23:50.178Z,22.90
2023-05-06T15:26:18.186Z,22.60
2023-05-06T15:28:46.204Z,22.20
2023-05-06T15:31:15.636Z,21.90
2023-05-06T15:33:43.743Z,21.50
2023-05-06T15:36:12.032Z,21.30
2023-05-06T15:38:58.361Z,21.10
2023-05-06T15:41:28.701Z,20.90
2023-05-06T15:43:58.361Z,20.50
2023-05-06T15:46:28.474Z,20.40
2023-05-06T15:49:17.384Z,20.20
2023-05-06T15:51:44.698Z,19.70
2023-05-06T15:54:13.133Z,19.60
2023-05-06T15:56:43.685Z,19.60
2023-05-06T15:59:12.275Z,19.70
2023-05-06T16:02:24.593Z,19.60
2023-05-06T16:04:31.033Z,19.40
2023-05-06T16:07:00.450Z,19.20
2023-05-06T16:09:28.505Z,19.20
2023-05-06T16:11:59.320Z,19.20
2023-05-06T16:14:27.297Z,19.00
2023-05-06T16:16:56.739Z,18.90
2023-05-06T16:19:24.781Z,18.90
2023-05-06T16:21:53.027Z,18.90
2023-05-06T16:24:21.046Z,18.90
2023-05-06T16:26:49.030Z,18.90
2023-05-06T16:29:19.086Z,18.90
2023-05-06T16:31:47.194Z,18.70
2023-05-06T16:34:16.673Z,18.70
2023-05-06T16:36:45.951Z,18.70
2023-05-06T16:39:14.118Z,18.60
2023-05-06T16:41:42.044Z,18.60
2023-05-06T16:44:10.096Z,18.60
2023-05-06T16:46:38.273Z,18.40
2023-05-06T16:49:06.347Z,18.30
2023-05-06T16:51:35.677Z,17.90
2023-05-06T16:54:03.678Z,18.30
2023-05-06T16:56:43.824Z,18.30
2023-05-06T16:59:21.864Z,18.20
2023-05-06T17:01:52.805Z,18.20
2023-05-06T17:04:20.917Z,18.10
2023-05-06T17:06:50.252Z,18.00
2023-05-06T17:09:18.501Z,17.90
2023-05-06T17:11:46.613Z,17.80
2023-05-06T17:14:14.871Z,17.70
2023-05-06T17:16:43.134Z,17.70
2023-05-06T17:19:11.817Z,17.70
2023-05-06T17:21:46.781Z,17.70
2023-05-06T17:24:16.107Z,17.60
2023-05-06T17:26:46.533Z,17.50
2023-05-06T17:29:14.647Z,17.40
2023-05-06T17:31:42.684Z,17.40
2023-05-06T17:34:12.524Z,17.40
2023-05-06T17:36:40.497Z,17.40
2023-05-06T17:39:09.474Z,17.20
2023-05-06T17:41:38.802Z,17.20
2023-05-06T17:44:07.443Z,17.10
2023-05-06T17:46:35.450Z,17.10
2023-05-06T17:49:03.449Z,16.90
2023-05-06T17:51:33.093Z,16.90
2023-05-06T17:54:01.064Z,16.80
2023-05-06T17:56:29.052Z,16.80
2023-05-06T17:59:02.463Z,16.70
2023-05-06T18:01:30.504Z,16.70
2023-05-06T18:04:02.641Z,16.60
2023-05-06T18:06:31.090Z,16.30
2023-05-06T18:08:59.068Z,16.20
2023-05-06T18:11:27.057Z,16.30
2023-05-06T18:13:55.152Z,16.30
2023-05-06T18:16:24.520Z,16.30
2023-05-06T18:18:52.558Z,16.20
2023-05-06T18:21:20.541Z,16.20
2023-05-06T18:23:49.757Z,16.20
2023-05-06T18:26:34.998Z,16.10
2023-05-06T18:29:06.894Z,16.10
2023-05-06T18:31:36.299Z,16.10
2023-05-06T18:34:04.553Z,16.00
2023-05-06T18:36:32.663Z,15.90
2023-05-06T18:39:01.250Z,15.90
2023-05-06T18:41:29.310Z,15.80
2023-05-06T18:43:57.277Z,15.80
2023-05-06T18:46:28.379Z,15.70
2023-05-06T18:48:57.983Z,15.50
2023-05-06T18:51:26.310Z,15.50
2023-05-06T18:53:54.651Z,15.50
2023-05-06T18:56:22.615Z,15.40
2023-05-06T18:58:50.839Z,15.40
2023-05-06T19:01:19.115Z,15.30
2023-05-06T19:03:49.118Z,15.30
2023-05-06T19:06:18.824Z,15.20
2023-05-06T19:08:46.892Z,15.10
2023-05-06T19:11:16.955Z,15.00
2023-05-06T19:13:44.992Z,15.00
2023-05-06T19:16:13.811Z,14.90
2023-05-06T19:18:42.104Z,14.80
2023-05-06T19:21:10.549Z,14.80
2023-05-06T19:23:40.240Z,14.70
2023-05-06T19:26:09.930Z,14.70
2023-05-06T19:28:37.964Z,14.70
2023-05-06T19:31:07.288Z,14.60
2023-05-06T19:33:35.470Z,14.60
2023-05-06T19:36:03.523Z,13.90
2023-05-06T19:38:33.118Z,14.40
2023-05-06T19:41:02.497Z,14.30
2023-05-06T19:43:30.553Z,14.10
2023-05-06T19:45:58.702Z,14.10
2023-05-06T19:48:26.688Z,14.10
2023-05-06T19:50:54.809Z,14.10
2023-05-06T19:53:23.906Z,14.00
2023-05-06T19:55:55.293Z,14.00
2023-05-06T19:58:24.620Z,13.80
2023-05-06T20:00:52.899Z,13.80
2023-05-06T20:03:22.883Z,13.80
2023-05-06T20:05:51.032Z,13.80
2023-05-06T20:08:27.870Z,13.70
2023-05-06T20:10:56.078Z,13.60
2023-05-06T20:13:25.892Z,13.60
2023-05-06T20:15:54.378Z,13.60
2023-05-06T20:18:22.749Z,13.50
2023-05-06T20:20:50.815Z,13.50
2023-05-06T20:23:18.829Z,13.40
2023-05-06T20:25:46.884Z,13.40
2023-05-06T20:28:15.026Z,13.30
2023-05-06T20:30:44.444Z,13.30
2023-05-06T20:33:12.501Z,13.30
2023-05-06T20:35:40.543Z,13.20
2023-05-06T20:38:09.267Z,13.20
2023-05-06T20:40:37.480Z,12.90
2023-05-06T20:43:10.558Z,13.00
2023-05-06T20:45:40.312Z,13.00
2023-05-06T20:48:09.917Z,12.80
2023-05-06T20:50:38.259Z,12.80
2023-05-06T20:53:06.393Z,12.80
2023-05-06T20:55:34.466Z,12.70
2023-05-06T20:58:02.427Z,12.80
2023-05-06T21:00:33.147Z,12.70
2023-05-06T21:03:05.214Z,12.70
2023-05-06T21:05:36.309Z,12.60
2023-05-06T21:08:04.353Z,12.60
2023-05-06T21:10:32.339Z,12.30
2023-05-06T21:13:00.723Z,12.30
2023-05-06T21:15:28.747Z,12.20
2023-05-06T21:17:56.832Z,12.40
2023-05-06T21:20:24.873Z,12.40
2023-05-06T21:22:56.135Z,12.40
2023-05-06T21:25:24.243Z,12.30
2023-05-06T21:27:52.232Z,12.30
2023-05-06T21:30:20.264Z,12.40
2023-05-06T21:32:52.217Z,12.40
2023-05-06T21:35:26.247Z,12.50
2023-05-06T21:37:57.934Z,12.50
2023-05-06T21:40:27.398Z,12.50
2023-05-06T21:42:55.562Z,12.50
2023-05-06T21:45:23.529Z,12.40
2023-05-06T21:47:51.611Z,12.30
2023-05-06T21:50:19.819Z,12.40
2023-05-06T21:52:47.792Z,12.40
2023-05-06T21:55:19.142Z,12.50
2023-05-06T21:57:47.159Z,12.40
2023-05-06T22:00:15.917Z,12.40
2023-05-06T22:02:44.704Z,12.40
2023-05-06T22:05:13.044Z,12.50
2023-05-06T22:07:41.852Z,12.50
2023-05-06T22:10:10.163Z,12.50
2023-05-06T22:12:39.567Z,12.40
2023-05-06T22:15:08.953Z,12.40
2023-05-06T22:17:39.236Z,12.40
2023-05-06T22:20:10.918Z,12.20
2023-05-06T22:22:41.971Z,12.20
2023-05-06T22:25:10.597Z,12.30
2023-05-06T22:27:41.337Z,12.30
2023-05-06T22:30:09.940Z,12.30
2023-05-06T22:32:38.037Z,12.30
2023-05-06T22:35:06.585Z,12.40
2023-05-06T22:37:34.539Z,12.40
2023-05-06T22:40:02.600Z,12.40
2023-05-06T22:42:30.598Z,12.40
2023-05-06T22:44:59.928Z,12.30
2023-05-06T22:47:27.992Z,12.20
2023-05-06T22:50:01.367Z,12.30
2023-05-06T22:52:32.941Z,12.30
2023-05-06T22:55:00.886Z,12.30
2023-05-06T22:57:31.092Z,12.30
2023-05-06T23:00:00.452Z,12.30
2023-05-06T23:02:28.490Z,12.30
2023-05-06T23:05:09.643Z,12.30
2023-05-06T23:07:39.953Z,12.40
2023-05-06T23:10:08.632Z,12.30
2023-05-06T23:12:36.949Z,12.30
2023-05-06T23:15:07.488Z,12.30
2023-05-06T23:17:38.564Z,12.30
2023-05-06T23:20:12.853Z,12.30
2023-05-06T23:22:40.943Z,12.30
2023-05-06T23:25:14.225Z,12.30
2023-05-06T23:27:42.548Z,12.30
2023-05-06T23:30:12.511Z,12.30
2023-05-06T23:32:40.923Z,12.20
2023-05-06T23:35:09.489Z,12.10
2023-05-06T23:37:38.249Z,12.00
2023-05-06T23:40:07.220Z,12.00
2023-05-06T23:42:35.205Z,12.00
2023-05-06T23:45:03.180Z,11.80
2023-05-06T23:47:32.604Z,11.80
2023-05-06T23:50:00.737Z,11.60
2023-05-06T23:52:28.794Z,11.60
2023-05-06T23:54:56.859Z,11.70
2023-05-06T23:57:24.959Z,11.70
2023-05-06T23:59:52.949Z,11.60
